Terminal Aerodrome Forecast
Issued by NWS

Home | Current Version | Previous Version | Text Only | Print | Product List | Glossary On
Versions: 1 2 3 4 5 6 7 8 9 10 11 12 13 14 15 16
000
FTUS46 KPDT 261130
TAFRDM
TAF
KRDM 261130Z 2612/2712 VRB05KT P6SM SCT060 BKN110
     FM261800 18008G15KT P6SM VCSH SCT045 OVC060
     FM262200 19008G15KT P6SM -RA SCT035 OVC050
     FM270600 VRB05KT P6SM VCSH BKN050 OVC070=

USA.gov is the U.S. government's official web portal to all federal, state and local government web resources and services.